Keating, Oregon
Current Conditions -  °F | °C
As of 7:53 AM on Saturday 22 Nov 2014 (Local Time) from KBKE Reporting Station
Light Rain Light Rain  
Wind Chill: 34°   Ceiling: 3900
Heat Index: 34°   Visibility: 3mi
Dew Point: 33°   Wind: 3mph
Humidity: 96%   Direction: 190°S
Pressure: 29.72"   Gusts: NA
Location:  44.7595°N, 117.716°W
Report Text: KBKE 221553Z AUTO 19003KT 3SM -RA BR FEW026 BKN039 OVC070 01/01 A2972 RMK AO2 RAE05B29 SLP083 P0000 T00110006
Loading
Personal Weather Stations






























Interactive Weather Map New forecast layout! Learn more

10-Day Weather Forecast

Advertisements
Track Severe Weather on mobile